• Join FlightAware (Why Join?)
  • Login
  • US Flag 
09:56AM EDT


 

Airport Tracker/Info


-or-


 

Live Flight TrackerFlight Track Log ✈ N2710C ✈ 02-May-2013 ✈ KGFL - KPNE

Flight Track Log - Related Links

Times and Time Zones

All times are in EDT time to prevent confusion due to time zone crossing. See the N2710C flight status page for this flight to view local times or setup timezone preferences in your user account.

Time Position Orientation Groundspeed Altitude Reporting Facility
EDT Latitude Longitude Course Direction KTS MPH feet Rate Location/Type
12:50PM 42.9278 -73.8039 194° South 105 121 4,600  Level Boston Center
12:52PM 42.8714 -73.8225 194° South 105 121 4,500 -60 Descending Boston Center
12:53PM 42.8442 -73.8361 200° South 105 121 4,500  Level Boston Center
12:54PM 42.8147 -73.8467 195° South 105 121 4,500  Level Boston Center
12:55PM 42.7875 -73.8575 196° South 105 121 4,500  Level Boston Center
12:57PM 42.7331 -73.8817 198° South 102 117 4,500  Level Boston Center
12:58PM 42.7058 -73.8922 196° South 98 113 4,500  Level Boston Center
12:59PM 42.6764 -73.9058 199° South 100 115 4,600 60 Climbing Boston Center
01:00PM 42.6514 -73.9164 197° South 99 114 4,700 60 Climbing Boston Center
01:01PM 42.6242 -73.9300 200° South 97 112 4,800 120 Climbing Boston Center
01:02PM 42.5989 -73.9433 201° Southwest 98 113 5,000 180 Climbing Boston Center
01:03PM 42.5717 -73.9542 196° South 95 109 5,200 180 Climbing Boston Center
01:04PM 42.5486 -73.9647 199° South 91 105 5,500 300 Climbing Boston Center
01:05PM 42.5256 -73.9728 194° South 83 96 5,900 360 Climbing Boston Center
01:06PM 42.5025 -73.9833 199° South 80 92 6,300 300 Climbing Boston Center
01:07PM 42.4836 -73.9942 203° Southwest 84 97 6,500 60 Climbing Boston Center
01:08PM 42.4564 -74.0047 196° South 104 120 6,500 -60 Level Boston Center
01:09PM 42.4311 -74.0153 197° South 107 123 6,400  Descending Boston Center
01:10PM 42.4039 -74.0286 200° South 104 120 6,500  Climbing Boston Center
01:11PM 42.3725 -74.0419 197° South 102 117 6,500  Level Boston Center
01:12PM 42.3450 -74.0581 203° Southwest 105 121 6,600  Climbing Boston Center
01:13PM 42.3158 -74.0714 199° South 106 122 6,600 -60 Level Boston Center
01:15PM 42.2592 -74.0894 193° South 105 121 6,500 -60 Descending Boston Center
01:16PM 42.2319 -74.1028 200° South 105 121 6,500  Level Boston Center
01:17PM 42.2047 -74.1133 196° South 104 120 6,600 60 Climbing Boston Center
01:19PM 42.1667 -74.1333 201° Southwest 101 116 6,800 60 Climbing New York TRACON
01:19PM 42.1333 -74.1333 180° South 101 116 6,800  Level New York TRACON
01:20PM 42.1000 -74.1500 200° South 104 120 6,800 -180 Level New York TRACON
01:21PM 42.0833 -74.1667 217° Southwest 101 116 6,500 -60 Descending New York TRACON
01:22PM 42.0500 -74.1667 180° South 99 114 6,700 60 Climbing New York TRACON
01:24PM 42.0167 -74.1833 200° South 108 124 6,700  Level New York TRACON
01:24PM 42.0000 -74.2000 217° Southwest 107 123 6,700 -60 Level New York TRACON
01:26PM 41.9667 -74.2167 200° South 107 123 6,600 -60 Descending New York TRACON
01:26PM 41.9500 -74.2167 180° South 104 120 6,600  Level New York TRACON
01:27PM 41.9167 -74.2333 200° South 104 120 6,600  Level New York TRACON
01:28PM 41.8833 -74.2500 200° South 103 119 6,600  Level New York TRACON
01:30PM 41.8500 -74.2667 200° South 105 121 6,700  Climbing New York TRACON
01:30PM 41.8333 -74.2667 180° South 106 122 6,700 -60 Level New York TRACON
01:31PM 41.8000 -74.2833 200° South 105 121 6,600 -60 Descending New York TRACON
01:32PM 41.7833 -74.3000 217° Southwest 106 122 6,600  Level New York TRACON
01:33PM 41.7500 -74.3000 180° South 102 117 6,600 -60 Level New York TRACON
01:34PM 41.7333 -74.3167 217° Southwest 101 116 6,500 -60 Descending New York TRACON
01:35PM 41.7000 -74.3333 200° South 103 119 6,500  Level New York TRACON
01:36PM 41.6667 -74.3333 180° South 103 119 6,600  Climbing New York TRACON
01:37PM 41.6500 -74.3500 217° Southwest 103 119 6,500  Descending New York TRACON
01:38PM 41.6167 -74.3667 200° South 103 119 6,600  Climbing New York TRACON
01:39PM 41.5833 -74.3833 201° Southwest 101 116 6,600  Level New York TRACON
01:40PM 41.5667 -74.4000 217° Southwest 103 119 6,600  Level New York TRACON
01:41PM 41.5333 -74.4000 180° South 102 117 6,700  Climbing New York TRACON
01:42PM 41.5167 -74.4167 217° Southwest 101 116 6,600 -180 Descending New York TRACON
01:43PM 41.4833 -74.4333 201° Southwest 106 122 6,400 -60 Descending New York TRACON
01:44PM 41.4667 -74.4500 217° Southwest 94 108 6,500 60 Climbing New York TRACON
01:46PM 41.4333 -74.4500 180° South 99 114 6,600  Climbing New York TRACON
01:46PM 41.4167 -74.4667 217° Southwest 107 123 6,600  Level New York TRACON
01:47PM 41.3833 -74.4833 201° Southwest 98 113 6,600  Level New York TRACON
01:48PM 41.3500 -74.4833 180° South 98 113 6,600  Level New York TRACON
01:50PM 41.3333 -74.5000 217° Southwest 102 117 6,600  Level New York TRACON
01:51PM 41.3000 -74.5167 201° Southwest 103 119 6,700  Climbing New York TRACON
01:51PM 41.2833 -74.5167 180° South 100 115 6,600 -60 Descending New York TRACON
01:52PM 41.2500 -74.5333 201° Southwest 91 105 6,600  Level New York TRACON
01:53PM 41.2333 -74.5333 180° South 92 106 6,700  Climbing New York TRACON
01:54PM 41.2000 -74.5500 201° Southwest 96 110 6,700 -60 Level New York TRACON
01:55PM 41.1833 -74.5500 180° South 96 110 6,600 -60 Descending New York TRACON
01:56PM 41.1500 -74.5667 201° Southwest 94 108 6,600  Level New York TRACON
01:57PM 41.1333 -74.5833 217° Southwest 102 117 6,600  Level New York TRACON
01:58PM 41.1000 -74.6000 201° Southwest 102 117 6,700 -60 Climbing New York TRACON
01:59PM 41.0667 -74.6000 180° South 102 117 6,500 -120 Descending New York TRACON
02:00PM 41.0500 -74.6167 217° Southwest 99 114 6,500  Level New York TRACON
02:01PM 41.0333 -74.6333 217° Southwest 101 116 6,600  Climbing New York TRACON
02:02PM 41.0000 -74.6333 180° South 101 116 6,600  Level New York TRACON
02:03PM 40.9667 -74.6500 201° Southwest 100 115 6,600  Level New York TRACON
02:04PM 40.9500 -74.6667 217° Southwest 96 110 6,600  Level New York TRACON
02:05PM 40.9167 -74.6667 180° South 99 114 6,700  Climbing New York TRACON
02:06PM 40.9000 -74.6833 217° Southwest 102 117 6,600 -60 Descending New York TRACON
02:07PM 40.8667 -74.7000 201° Southwest 93 107 6,600 -60 Level New York TRACON
02:08PM 40.8500 -74.7167 217° Southwest 95 109 6,500 -60 Descending New York TRACON
02:09PM 40.8167 -74.7167 180° South 89 102 6,500 60 Level New York TRACON
02:10PM 40.8000 -74.7333 217° Southwest 94 108 6,700  Climbing New York TRACON
02:11PM 40.7667 -74.7333 180° South 99 114 6,600 -60 Descending New York TRACON
02:12PM 40.7500 -74.7500 217° Southwest 97 112 6,600  Level New York TRACON
02:13PM 40.7167 -74.7500 180° South 97 112 6,600 -60 Level New York TRACON
02:14PM 40.7000 -74.7667 217° Southwest 96 110 6,500  Descending New York TRACON
02:15PM 40.6667 -74.7833 201° Southwest 93 107 6,600  Climbing New York TRACON
02:16PM 40.6500 -74.7833 180° South 94 108 6,500 -60 Descending New York TRACON
02:17PM 40.6167 -74.8000 201° Southwest 95 109 6,500  Level New York TRACON
02:18PM 40.6000 -74.8000 180° South 91 105 6,500  Level New York TRACON
02:19PM 40.5667 -74.8167 201° Southwest 134 154 6,500  Level New York TRACON
02:20PM 40.5500 -74.8167 180° South 91 105 6,600  Climbing New York TRACON
02:21PM 40.5167 -74.8333 201° Southwest 93 107 6,600  Level New York TRACON
02:22PM 40.5000 -74.8500 217° Southwest 93 107 6,600  Level New York TRACON
02:23PM 40.4667 -74.8500 180° South 95 109 6,600 -60 Level New York TRACON
02:24PM 40.4500 -74.8667 217° Southwest 97 112 6,500 -60 Descending New York TRACON
02:25PM 40.4167 -74.8833 201° Southwest 98 113 6,500  Level New York TRACON
02:27PM 40.3878 -74.8689 339° North  Level FlightAware Approximate
02:34PM 40.2371 -74.9333 180° South  Level FlightAware Approximate
02:35PM 40.2056 -74.9426 194° South  Level FlightAware Approximate
02:36PM 40.1745 -74.9544 201° Southwest  Level FlightAware Approximate
02:37PM 40.1440 -74.9690 197° South  Level FlightAware Approximate
02:38PM 40.1130 -74.9815 197° South  Level FlightAware Approximate
02:39PM 40.0820 -74.9939 197° South  Level FlightAware Approximate
02:40PM 40.0667 -75.0000 197° South  Level FlightAware Approximate
02:41PM 40.0819 -75.0106 197° South  Level Estimated
02:42PM 40.0819 -75.0106 197° South  Level Estimated
02:43PM 40.0819 -75.0106 197° South  Level Estimated
02:44PM 40.0819 -75.0106 197° South  Level Estimated
02:45PM 40.0819 -75.0106 197° South  Level Estimated
02:46PM 40.0819 -75.0106 197° South  Level Estimated
02:47PM 40.0819 -75.0106 197° South  Level Estimated
02:48PM 40.0819 -75.0106 197° South  Level Estimated
02:49PM 40.0819 -75.0106 197° South  Level Estimated
02:50PM 40.0819 -75.0106 197° South  Level Estimated
02:51PM 40.0819 -75.0106 197° South  Level Estimated
02:52PM 40.0819 -75.0106 197° South  Level Estimated